Aviation Digital Data Service (ADDS)

Output produced by METARs form (0916 UTC 20 January 2018)
found at http://aviationweather.gov/adds/metars/
 
KLFT 200522Z 2006/2106 09003KT P6SM VCSH OVC050 
     FM201200 09003KT P6SM VCSH OVC015 
     FM201500 14006KT P6SM VCSH BKN025